createdAt,value
2023-01-10T00:00:55.634Z,0.00
2023-01-10T00:01:55.759Z,0.00
2023-01-10T00:02:55.969Z,0.00
2023-01-10T00:03:55.984Z,0.00
2023-01-10T00:04:56.158Z,0.00
2023-01-10T00:05:56.206Z,0.00
2023-01-10T00:06:56.337Z,0.00
2023-01-10T00:07:56.461Z,0.00
2023-01-10T00:08:56.625Z,0.00
2023-01-10T00:09:56.731Z,0.00
2023-01-10T00:10:56.875Z,0.00
2023-01-10T00:11:57.047Z,0.00
2023-01-10T00:12:57.163Z,0.00
2023-01-10T00:13:57.315Z,0.00
2023-01-10T00:14:57.454Z,0.00
2023-01-10T00:15:57.638Z,0.00
2023-01-10T00:16:57.652Z,0.00
2023-01-10T00:17:57.800Z,0.00
2023-01-10T00:18:57.950Z,0.00
2023-01-10T00:19:58.071Z,0.00
2023-01-10T00:20:58.203Z,0.00
2023-01-10T00:21:58.377Z,0.00
2023-01-10T00:22:58.505Z,0.00
2023-01-10T00:23:58.645Z,0.00
2023-01-10T00:24:58.762Z,0.00
2023-01-10T00:25:58.895Z,0.00
2023-01-10T00:26:59.012Z,0.00
2023-01-10T00:27:59.153Z,0.00
2023-01-10T00:28:59.304Z,0.00
2023-01-10T00:29:59.423Z,0.00
2023-01-10T00:30:59.547Z,0.00
2023-01-10T00:31:59.685Z,0.00
2023-01-10T00:32:59.811Z,0.00
2023-01-10T00:33:59.962Z,0.00
2023-01-10T00:35:00.097Z,0.00
2023-01-10T00:36:00.221Z,0.00
2023-01-10T00:37:00.353Z,0.00
2023-01-10T00:38:00.486Z,0.00
2023-01-10T00:39:00.661Z,0.00
2023-01-10T00:40:00.808Z,0.00
2023-01-10T00:41:00.925Z,0.00
2023-01-10T00:42:01.060Z,0.00
2023-01-10T00:43:01.186Z,0.00
2023-01-10T00:44:01.338Z,0.00
2023-01-10T00:45:01.482Z,0.00
2023-01-10T00:46:01.645Z,0.00
2023-01-10T00:47:01.821Z,0.00
2023-01-10T00:48:01.970Z,0.00
2023-01-10T00:49:02.127Z,0.00
2023-01-10T00:50:02.284Z,0.00
2023-01-10T00:51:02.419Z,0.00
2023-01-10T00:52:02.567Z,0.00
2023-01-10T00:53:02.722Z,0.00
2023-01-10T00:54:02.877Z,0.00
2023-01-10T00:55:03.021Z,0.00
2023-01-10T00:56:03.219Z,0.00
2023-01-10T00:57:03.223Z,0.00
2023-01-10T00:58:03.357Z,0.00
2023-01-10T00:59:03.488Z,0.00
2023-01-10T01:00:03.620Z,0.00
2023-01-10T01:01:03.770Z,0.00
2023-01-10T01:02:04.000Z,0.00
2023-01-10T01:03:04.064Z,0.00
2023-01-10T01:04:04.117Z,0.00
2023-01-10T01:05:04.244Z,0.00
2023-01-10T01:06:04.373Z,0.00
2023-01-10T01:07:04.509Z,0.00
2023-01-10T01:08:04.639Z,0.00
2023-01-10T01:09:04.793Z,0.00
2023-01-10T01:10:04.920Z,0.00
2023-01-10T01:11:05.046Z,0.00
2023-01-10T01:12:05.188Z,0.00
2023-01-10T01:13:05.313Z,0.00
2023-01-10T01:14:05.456Z,0.00
2023-01-10T01:15:05.590Z,0.00
2023-01-10T01:16:05.774Z,0.00
2023-01-10T01:17:05.879Z,0.00
2023-01-10T01:18:06.007Z,0.00
2023-01-10T01:19:06.142Z,0.00
2023-01-10T01:20:06.295Z,0.00
2023-01-10T01:21:06.413Z,0.00
2023-01-10T01:22:06.560Z,0.00
2023-01-10T01:23:06.689Z,0.00
2023-01-10T01:24:06.853Z,0.00
2023-01-10T01:25:06.998Z,0.00
2023-01-10T01:26:07.152Z,0.00
2023-01-10T01:27:07.270Z,0.00
2023-01-10T01:28:07.398Z,0.00
2023-01-10T01:29:07.534Z,0.00
2023-01-10T01:30:07.683Z,0.00
2023-01-10T01:31:07.852Z,0.00
2023-01-10T01:32:07.940Z,0.00
2023-01-10T01:33:08.072Z,0.00
2023-01-10T01:34:08.237Z,0.00
2023-01-10T01:35:08.362Z,0.00
2023-01-10T01:36:08.511Z,0.00
2023-01-10T01:37:08.640Z,0.00
2023-01-10T01:38:08.774Z,0.00
2023-01-10T01:39:08.926Z,0.00
2023-01-10T01:40:09.061Z,0.00
2023-01-10T01:41:09.188Z,0.00
2023-01-10T01:42:09.328Z,0.00
2023-01-10T01:43:09.467Z,0.00
2023-01-10T01:44:09.607Z,0.00
2023-01-10T01:45:09.750Z,0.00
2023-01-10T01:46:09.910Z,0.00
2023-01-10T01:47:10.040Z,0.00
2023-01-10T01:48:10.165Z,0.00
2023-01-10T01:49:10.318Z,0.00
2023-01-10T01:50:10.455Z,0.00
2023-01-10T01:51:10.596Z,0.00
2023-01-10T01:52:10.733Z,0.00
2023-01-10T01:53:10.890Z,0.00
2023-01-10T01:54:11.059Z,0.00
2023-01-10T01:55:11.201Z,0.00
2023-01-10T01:56:11.335Z,0.00
2023-01-10T01:57:11.467Z,0.00
2023-01-10T01:58:11.635Z,0.00
2023-01-10T01:59:11.789Z,0.00
2023-01-10T02:00:11.931Z,0.00
2023-01-10T02:01:12.125Z,0.00
2023-01-10T02:02:12.290Z,0.00
2023-01-10T02:03:12.434Z,0.00
2023-01-10T02:04:12.637Z,0.00
2023-01-10T02:05:12.629Z,0.00
2023-01-10T02:06:12.777Z,0.00
2023-01-10T02:07:12.906Z,0.00
2023-01-10T02:08:13.038Z,0.00
2023-01-10T02:09:13.186Z,0.00
2023-01-10T02:10:13.323Z,0.00
2023-01-10T02:11:13.477Z,0.00
2023-01-10T02:12:13.613Z,0.00
2023-01-10T02:13:13.740Z,0.00
2023-01-10T02:14:13.925Z,0.00
2023-01-10T02:15:13.942Z,0.00
2023-01-10T02:16:14.116Z,0.00
2023-01-10T02:17:14.237Z,0.00
2023-01-10T02:18:14.393Z,0.00
2023-01-10T02:19:14.533Z,0.00
2023-01-10T02:20:14.685Z,0.00
2023-01-10T02:21:14.810Z,0.00
2023-01-10T02:22:14.967Z,0.00
2023-01-10T02:23:15.101Z,0.00
2023-01-10T02:24:15.277Z,0.00
2023-01-10T02:25:15.411Z,0.00
2023-01-10T02:26:15.550Z,0.00
2023-01-10T02:27:15.680Z,0.00
2023-01-10T02:28:15.821Z,0.00
2023-01-10T02:29:15.973Z,0.00
2023-01-10T02:30:16.114Z,0.00
2023-01-10T02:31:16.389Z,0.00
2023-01-10T02:32:16.409Z,0.00
2023-01-10T02:33:16.535Z,0.00
2023-01-10T02:34:16.699Z,0.00
2023-01-10T02:35:16.808Z,0.00
2023-01-10T02:36:16.948Z,0.00
2023-01-10T02:37:17.079Z,0.00
2023-01-10T02:38:17.209Z,0.00
2023-01-10T02:39:17.361Z,0.00
2023-01-10T02:40:17.499Z,0.00
2023-01-10T02:41:17.622Z,0.00
2023-01-10T02:42:17.754Z,0.00
2023-01-10T02:43:17.878Z,0.00
2023-01-10T02:44:18.353Z,0.00
2023-01-10T02:45:18.184Z,0.00
2023-01-10T02:46:18.340Z,0.00
2023-01-10T02:47:18.455Z,0.00
2023-01-10T02:48:18.608Z,0.00
2023-01-10T02:49:18.744Z,0.00
2023-01-10T02:50:18.887Z,0.00
2023-01-10T02:51:19.009Z,0.00
2023-01-10T02:52:19.146Z,0.00
2023-01-10T02:53:19.271Z,0.00
2023-01-10T02:54:19.468Z,0.00
2023-01-10T02:55:19.485Z,0.00
2023-01-10T02:56:19.636Z,0.00
2023-01-10T02:57:19.768Z,0.00
2023-01-10T02:58:19.908Z,0.00
2023-01-10T02:59:20.068Z,0.00
2023-01-10T03:00:20.205Z,0.00
2023-01-10T03:01:20.437Z,0.00
2023-01-10T03:02:20.485Z,0.00
2023-01-10T03:03:20.615Z,0.00
2023-01-10T03:04:20.781Z,0.00
2023-01-10T03:05:20.902Z,0.00
2023-01-10T03:06:21.041Z,0.00
2023-01-10T03:07:21.180Z,0.00
2023-01-10T03:08:21.321Z,0.00
2023-01-10T03:09:21.482Z,0.00
2023-01-10T03:10:21.620Z,0.00
2023-01-10T03:11:21.743Z,0.00
2023-01-10T03:12:21.879Z,0.00
2023-01-10T03:13:22.001Z,0.00
2023-01-10T03:14:22.159Z,0.00
2023-01-10T03:15:22.292Z,0.00
2023-01-10T03:16:22.476Z,0.00
2023-01-10T03:17:22.604Z,0.00
2023-01-10T03:18:22.737Z,0.00
2023-01-10T03:19:22.902Z,0.00
2023-01-10T03:20:23.042Z,0.00
2023-01-10T03:21:23.164Z,0.00
2023-01-10T03:22:23.314Z,0.00
2023-01-10T03:23:23.441Z,0.00
2023-01-10T03:24:23.587Z,0.00
2023-01-10T03:25:23.711Z,0.00
2023-01-10T03:26:23.867Z,0.00
2023-01-10T03:27:23.998Z,0.00
2023-01-10T03:28:24.148Z,0.00
2023-01-10T03:29:24.296Z,0.00
2023-01-10T03:30:24.443Z,0.00
2023-01-10T03:31:24.569Z,0.00
2023-01-10T03:32:24.693Z,0.00
2023-01-10T03:33:24.833Z,0.00
2023-01-10T03:34:25.024Z,0.00
2023-01-10T03:35:25.127Z,0.00
2023-01-10T03:36:25.263Z,0.00
2023-01-10T03:37:25.397Z,0.00
2023-01-10T03:38:25.544Z,0.00
2023-01-10T03:39:25.687Z,0.00
2023-01-10T03:40:25.847Z,0.00
2023-01-10T03:41:25.989Z,0.00
2023-01-10T03:42:26.152Z,0.00
2023-01-10T03:43:26.281Z,0.00
2023-01-10T03:44:26.446Z,0.00
2023-01-10T03:45:26.572Z,0.00
2023-01-10T03:46:26.726Z,0.00
2023-01-10T03:47:26.839Z,0.00
2023-01-10T03:48:26.983Z,0.00
2023-01-10T03:49:27.132Z,0.00
2023-01-10T03:50:27.277Z,0.00
2023-01-10T03:51:27.401Z,0.00
2023-01-10T03:52:27.564Z,0.00
2023-01-10T03:53:34.681Z,0.00
2023-01-10T03:54:27.840Z,0.00
2023-01-10T03:55:27.974Z,0.00
2023-01-10T03:56:28.130Z,0.00
2023-01-10T03:57:28.280Z,0.00
2023-01-10T03:58:28.438Z,0.00
2023-01-10T03:59:28.581Z,0.00
2023-01-10T04:00:28.735Z,0.00
2023-01-10T04:01:28.925Z,0.00
2023-01-10T04:02:28.968Z,0.00
2023-01-10T04:03:29.106Z,0.00
2023-01-10T04:04:29.278Z,0.00
2023-01-10T04:05:29.419Z,0.00
2023-01-10T04:06:29.622Z,0.00
2023-01-10T04:07:29.640Z,0.00
2023-01-10T04:08:29.792Z,0.00
2023-01-10T04:09:29.945Z,0.00
2023-01-10T04:10:30.105Z,0.00
2023-01-10T04:11:30.275Z,0.00
2023-01-10T04:12:30.407Z,0.00
2023-01-10T04:13:30.535Z,0.00
2023-01-10T04:14:30.701Z,0.00
2023-01-10T04:15:30.838Z,0.00
2023-01-10T04:16:31.046Z,0.00
2023-01-10T04:17:31.092Z,0.00
2023-01-10T04:18:31.239Z,0.00
2023-01-10T04:19:31.385Z,0.00
2023-01-10T04:20:31.532Z,0.00
2023-01-10T04:21:31.671Z,0.00
2023-01-10T04:22:31.819Z,0.00
2023-01-10T04:23:31.977Z,0.00
2023-01-10T04:24:32.131Z,0.00
2023-01-10T04:25:32.270Z,0.00
2023-01-10T04:26:32.440Z,0.00
2023-01-10T04:27:32.581Z,0.00
2023-01-10T04:28:32.750Z,0.00
2023-01-10T04:29:32.912Z,0.00
2023-01-10T04:30:33.063Z,0.00
2023-01-10T04:31:33.260Z,0.00
2023-01-10T04:32:33.347Z,0.00
2023-01-10T04:33:33.446Z,0.00
2023-01-10T04:34:33.584Z,0.00
2023-01-10T04:35:33.755Z,0.00
2023-01-10T04:36:33.842Z,0.00
2023-01-10T04:37:33.967Z,0.00
2023-01-10T04:38:34.118Z,0.00
2023-01-10T04:39:34.293Z,0.00
2023-01-10T04:40:34.431Z,0.00
2023-01-10T04:41:34.580Z,0.00
2023-01-10T04:42:34.725Z,0.00
2023-01-10T04:43:34.867Z,0.00
2023-01-10T04:44:35.021Z,0.00
2023-01-10T04:45:35.254Z,0.00
2023-01-10T04:46:35.285Z,0.00
2023-01-10T04:47:35.468Z,0.00
2023-01-10T04:48:36.884Z,0.00
2023-01-10T04:49:35.755Z,0.00
2023-01-10T04:50:35.884Z,0.00
2023-01-10T04:51:36.045Z,0.00
2023-01-10T04:52:36.196Z,0.00
2023-01-10T04:53:36.354Z,0.00
2023-01-10T04:54:36.507Z,0.00
2023-01-10T04:55:36.669Z,0.00
2023-01-10T04:56:36.807Z,0.00
2023-01-10T04:57:36.982Z,0.00
2023-01-10T04:58:37.122Z,0.00
2023-01-10T04:59:37.412Z,0.00
2023-01-10T05:00:37.370Z,0.00
2023-01-10T05:01:37.524Z,0.00
2023-01-10T05:02:37.790Z,0.00
2023-01-10T05:03:37.825Z,0.00
2023-01-10T05:04:37.931Z,0.00
2023-01-10T05:05:38.033Z,0.00
2023-01-10T05:06:38.130Z,0.00
2023-01-10T05:07:38.361Z,0.00
2023-01-10T05:08:38.495Z,0.00
2023-01-10T05:09:39.089Z,0.00
2023-01-10T05:10:38.788Z,0.00
2023-01-10T05:11:38.960Z,0.00
2023-01-10T05:12:39.098Z,0.00
2023-01-10T05:13:39.260Z,0.00
2023-01-10T05:14:39.469Z,0.00
2023-01-10T05:15:40.146Z,0.00
2023-01-10T05:16:39.678Z,0.00
2023-01-10T05:17:39.792Z,0.00
2023-01-10T05:18:39.926Z,0.00
2023-01-10T05:19:40.079Z,0.00
2023-01-10T05:20:40.225Z,0.00
2023-01-10T05:21:40.387Z,0.00
2023-01-10T05:22:40.541Z,0.00
2023-01-10T05:23:40.673Z,0.00
2023-01-10T05:24:40.842Z,0.00
2023-01-10T05:25:41.000Z,0.00
2023-01-10T05:26:41.139Z,0.00
2023-01-10T05:27:41.277Z,0.00
2023-01-10T05:28:41.415Z,0.00
2023-01-10T05:29:41.593Z,0.00
2023-01-10T05:30:41.723Z,0.00
2023-01-10T05:31:41.918Z,0.00
2023-01-10T05:32:41.965Z,0.00
2023-01-10T05:33:42.091Z,0.00
2023-01-10T05:34:42.271Z,0.00
2023-01-10T05:35:42.436Z,0.00
2023-01-10T05:36:42.574Z,0.00
2023-01-10T05:37:42.735Z,0.00
2023-01-10T05:38:42.894Z,0.00
2023-01-10T05:39:43.053Z,0.00
2023-01-10T05:40:43.198Z,0.00
2023-01-10T05:41:43.358Z,0.00
2023-01-10T05:42:44.538Z,0.00
2023-01-10T05:43:43.692Z,0.00
2023-01-10T05:44:43.838Z,0.00
2023-01-10T05:45:44.021Z,0.00
2023-01-10T05:46:44.133Z,0.00
2023-01-10T05:47:44.285Z,0.00
2023-01-10T05:48:44.429Z,0.00
2023-01-10T05:49:44.616Z,0.00
2023-01-10T05:50:45.084Z,0.00
2023-01-10T05:51:44.915Z,0.00
2023-01-10T05:52:45.014Z,0.00
2023-01-10T05:53:45.129Z,0.00
2023-01-10T05:54:45.190Z,0.00
2023-01-10T05:55:45.445Z,0.00
2023-01-10T05:56:45.543Z,0.00
2023-01-10T05:57:45.590Z,0.00
2023-01-10T05:58:47.385Z,0.00
2023-01-10T05:59:45.945Z,0.00
2023-01-10T06:00:46.093Z,0.00
2023-01-10T06:01:46.259Z,0.00
2023-01-10T06:02:46.507Z,0.00
2023-01-10T06:03:46.558Z,0.00
2023-01-10T06:04:46.719Z,0.00
2023-01-10T06:05:48.784Z,0.00
2023-01-10T06:06:46.967Z,0.00
2023-01-10T06:07:47.272Z,0.00
2023-01-10T06:08:47.285Z,0.00
2023-01-10T06:09:47.460Z,0.00
2023-01-10T06:10:47.609Z,0.00
2023-01-10T06:11:47.765Z,0.00
2023-01-10T06:12:47.911Z,0.00
2023-01-10T06:13:48.101Z,0.00
2023-01-10T06:14:48.264Z,0.00
2023-01-10T06:15:48.461Z,0.00
2023-01-10T06:16:48.506Z,0.00
2023-01-10T06:17:48.682Z,0.00
2023-01-10T06:18:49.193Z,0.00
2023-01-10T06:19:49.160Z,0.00
2023-01-10T06:20:49.188Z,0.00
2023-01-10T06:21:49.431Z,0.00
2023-01-10T06:22:49.371Z,0.00
2023-01-10T06:23:49.671Z,0.00
2023-01-10T06:24:49.800Z,0.00
2023-01-10T06:25:49.744Z,0.00
2023-01-10T06:26:49.888Z,0.00
2023-01-10T06:27:50.050Z,0.00
2023-01-10T06:28:50.211Z,0.00
2023-01-10T06:29:50.379Z,0.00
2023-01-10T06:30:50.608Z,0.00
2023-01-10T06:31:50.662Z,0.00
2023-01-10T06:32:50.837Z,0.00
2023-01-10T06:33:50.989Z,0.00
2023-01-10T06:34:51.126Z,0.00
2023-01-10T06:35:51.350Z,0.00
2023-01-10T06:36:51.387Z,0.00
2023-01-10T06:37:51.547Z,0.00
2023-01-10T06:38:51.687Z,0.00
2023-01-10T06:39:51.918Z,0.00
2023-01-10T06:40:51.953Z,0.00
2023-01-10T06:41:52.137Z,0.00
2023-01-10T06:42:52.297Z,0.00
2023-01-10T06:43:52.476Z,0.00
2023-01-10T06:44:52.663Z,0.00
2023-01-10T06:45:53.221Z,0.00
2023-01-10T06:46:52.958Z,0.00
2023-01-10T06:47:53.113Z,4.00
2023-01-10T06:48:53.336Z,4.00
2023-01-10T06:49:53.404Z,0.00
2023-01-10T06:50:53.463Z,4.00
2023-01-10T06:51:53.623Z,4.00
2023-01-10T06:52:53.788Z,4.00
2023-01-10T06:53:53.958Z,4.00
2023-01-10T06:54:54.112Z,8.00
2023-01-10T06:55:54.275Z,8.00
2023-01-10T06:56:54.414Z,12.00
2023-01-10T06:57:54.570Z,8.00
2023-01-10T06:58:54.719Z,12.00
2023-01-10T06:59:54.890Z,16.00
2023-01-10T07:00:55.156Z,24.00
2023-01-10T07:01:55.331Z,32.00
2023-01-10T07:02:55.269Z,44.00
2023-01-10T07:03:55.542Z,52.00
2023-01-10T07:04:55.635Z,56.00
2023-01-10T07:05:55.716Z,64.00
2023-01-10T07:06:55.787Z,68.00
2023-01-10T07:07:55.949Z,72.00
2023-01-10T07:08:56.098Z,80.00
2023-01-10T07:09:56.368Z,96.00
2023-01-10T07:10:56.410Z,108.00
2023-01-10T07:11:56.586Z,116.00
2023-01-10T07:12:56.737Z,128.00
2023-01-10T07:13:56.987Z,136.00
2023-01-10T07:14:57.037Z,144.00
2023-01-10T07:15:57.245Z,152.00
2023-01-10T07:16:57.479Z,156.00
2023-01-10T07:17:57.552Z,164.00
2023-01-10T07:18:57.599Z,172.00
2023-01-10T07:19:57.769Z,184.00
2023-01-10T07:20:57.941Z,204.00
2023-01-10T07:21:58.128Z,220.00
2023-01-10T07:22:58.381Z,236.00
2023-01-10T07:23:58.868Z,252.00
2023-01-10T07:24:58.516Z,276.00
2023-01-10T07:25:58.596Z,300.00
2023-01-10T07:26:58.661Z,312.00
2023-01-10T07:27:58.738Z,324.00
2023-01-10T07:28:58.939Z,336.00
2023-01-10T07:29:59.017Z,352.00
2023-01-10T07:30:59.294Z,368.00
2023-01-10T07:31:59.361Z,384.00
2023-01-10T07:32:59.520Z,404.00
2023-01-10T07:33:59.710Z,428.00
2023-01-10T07:34:59.879Z,436.00
2023-01-10T07:36:00.078Z,440.00
2023-01-10T07:37:00.152Z,456.00
2023-01-10T07:38:00.327Z,484.00
2023-01-10T07:39:00.499Z,512.00
2023-01-10T07:40:00.712Z,536.00
2023-01-10T07:41:00.775Z,564.00
2023-01-10T07:42:00.838Z,600.00
2023-01-10T07:43:01.084Z,648.00
2023-01-10T07:44:01.158Z,652.00
2023-01-10T07:45:01.344Z,652.00
2023-01-10T07:46:01.552Z,648.00
2023-01-10T07:47:01.636Z,660.00
2023-01-10T07:48:01.818Z,684.00
2023-01-10T07:49:01.887Z,696.00
2023-01-10T07:50:02.007Z,712.00
2023-01-10T07:51:02.097Z,732.00
2023-01-10T07:52:02.152Z,736.00
2023-01-10T07:53:02.331Z,744.00
2023-01-10T07:54:02.519Z,752.00
2023-01-10T07:55:02.685Z,772.00
2023-01-10T07:56:02.896Z,812.00
2023-01-10T07:57:03.039Z,872.00
2023-01-10T07:58:03.220Z,904.00
2023-01-10T07:59:03.388Z,920.00
2023-01-10T08:00:03.516Z,832.00
2023-01-10T08:01:03.616Z,780.00
2023-01-10T08:02:03.686Z,888.00
2023-01-10T08:03:03.879Z,984.00
2023-01-10T08:04:03.835Z,1092.00
2023-01-10T08:05:04.113Z,1188.00
2023-01-10T08:06:04.183Z,984.00
2023-01-10T08:07:04.372Z,980.00
2023-01-10T08:08:04.434Z,856.00
2023-01-10T08:09:04.587Z,1084.00
2023-01-10T08:10:04.769Z,1292.00
2023-01-10T08:11:04.936Z,1284.00
2023-01-10T08:12:05.021Z,1080.00
2023-01-10T08:13:17.947Z,884.00
2023-01-10T08:14:06.424Z,792.00
2023-01-10T08:15:05.402Z,816.00
2023-01-10T08:16:05.522Z,768.00
2023-01-10T08:17:05.556Z,752.00
2023-01-10T08:18:05.726Z,728.00
2023-01-10T08:19:05.875Z,644.00
2023-01-10T08:20:06.049Z,752.00
2023-01-10T08:21:06.210Z,1028.00
2023-01-10T08:22:06.386Z,1248.00
2023-01-10T08:23:06.532Z,1444.00
2023-01-10T08:24:06.706Z,1776.00
2023-01-10T08:25:06.862Z,1752.00
2023-01-10T08:26:07.034Z,1664.00
2023-01-10T08:27:07.165Z,1408.00
2023-01-10T08:28:07.348Z,1192.00
2023-01-10T08:29:07.480Z,1116.00
2023-01-10T08:30:07.654Z,1160.00
2023-01-10T08:31:07.841Z,1212.00
2023-01-10T08:32:07.935Z,1396.00
2023-01-10T08:33:07.964Z,1492.00
2023-01-10T08:34:08.160Z,1736.00
2023-01-10T08:35:08.305Z,1772.00
2023-01-10T08:36:08.376Z,2364.00
2023-01-10T08:37:08.453Z,2932.00
2023-01-10T08:38:08.697Z,3516.00
2023-01-10T08:39:08.843Z,3740.00
2023-01-10T08:40:08.967Z,3712.00
2023-01-10T08:41:09.003Z,4028.00
2023-01-10T08:42:09.171Z,3796.00
2023-01-10T08:43:09.379Z,3452.00
2023-01-10T08:44:09.410Z,4240.00
2023-01-10T08:45:09.554Z,4116.00
2023-01-10T08:46:09.768Z,3928.00
2023-01-10T08:47:09.774Z,3656.00
2023-01-10T08:48:09.961Z,3564.00
2023-01-10T08:49:10.169Z,3968.00
2023-01-10T08:50:10.297Z,4040.00
2023-01-10T08:51:10.487Z,4364.00
2023-01-10T08:52:10.623Z,3376.00
2023-01-10T08:53:10.794Z,3564.00
2023-01-10T08:54:10.923Z,3116.00
2023-01-10T08:55:11.051Z,2688.00
2023-01-10T08:56:11.265Z,2816.00
2023-01-10T08:57:11.310Z,2812.00
2023-01-10T08:58:11.405Z,2852.00
2023-01-10T08:59:11.449Z,3428.00
2023-01-10T09:00:11.632Z,4472.00
2023-01-10T09:01:11.674Z,5900.00
2023-01-10T09:02:11.829Z,8236.00
2023-01-10T09:03:12.027Z,10720.00
2023-01-10T09:04:12.060Z,7768.00
2023-01-10T09:05:22.140Z,6416.00
2023-01-10T09:06:13.286Z,8236.00
2023-01-10T09:07:12.412Z,9908.00
2023-01-10T09:08:12.541Z,10224.00
2023-01-10T09:09:12.668Z,9788.00
2023-01-10T09:10:12.795Z,5944.00
2023-01-10T09:11:12.909Z,7224.00
2023-01-10T09:12:13.015Z,7200.00
2023-01-10T09:13:13.139Z,6752.00
2023-01-10T09:14:13.238Z,6176.00
2023-01-10T09:15:13.373Z,6072.00
2023-01-10T09:16:13.503Z,6160.00
2023-01-10T09:17:13.627Z,6156.00
2023-01-10T09:18:13.732Z,7236.00
2023-01-10T09:19:13.837Z,10900.00
2023-01-10T09:20:13.953Z,11016.00
2023-01-10T09:21:14.072Z,7112.00
2023-01-10T09:22:14.173Z,5920.00
2023-01-10T09:23:14.286Z,4548.00
2023-01-10T09:24:14.386Z,4548.00
2023-01-10T09:25:14.550Z,4840.00
2023-01-10T09:26:14.662Z,5196.00
2023-01-10T09:27:14.787Z,5852.00
2023-01-10T09:28:14.926Z,8520.00
2023-01-10T09:29:15.013Z,10088.00
2023-01-10T09:30:15.120Z,7304.00
2023-01-10T09:31:15.239Z,9980.00
2023-01-10T09:32:15.339Z,5220.00
2023-01-10T09:33:15.437Z,3208.00
2023-01-10T09:34:15.542Z,1972.00
2023-01-10T09:35:15.779Z,1636.00
2023-01-10T09:36:16.061Z,1868.00
2023-01-10T09:37:15.875Z,2296.00
2023-01-10T09:38:15.976Z,2664.00
2023-01-10T09:39:16.087Z,2676.00
2023-01-10T09:40:16.205Z,2412.00
2023-01-10T09:41:16.302Z,1956.00
2023-01-10T09:42:16.397Z,2340.00
2023-01-10T09:43:16.536Z,2592.00
2023-01-10T09:44:16.630Z,2972.00
2023-01-10T09:45:16.759Z,3124.00
2023-01-10T09:46:16.882Z,3680.00
2023-01-10T09:47:22.432Z,4072.00
2023-01-10T09:48:18.030Z,4428.00
2023-01-10T09:49:17.166Z,4656.00
2023-01-10T09:50:17.283Z,4984.00
2023-01-10T09:51:17.400Z,4752.00
2023-01-10T09:52:17.516Z,3100.00
2023-01-10T09:53:17.651Z,2676.00
2023-01-10T09:54:24.744Z,2328.00
2023-01-10T09:55:18.653Z,2160.00
2023-01-10T09:56:19.744Z,2312.00
2023-01-10T09:57:18.131Z,3660.00
2023-01-10T09:58:18.223Z,4016.00
2023-01-10T09:59:18.347Z,3812.00
2023-01-10T10:00:18.531Z,3276.00
2023-01-10T10:01:18.656Z,3052.00
2023-01-10T10:02:18.681Z,5116.00
2023-01-10T10:03:18.850Z,4860.00
2023-01-10T10:04:19.013Z,5568.00
2023-01-10T10:05:19.060Z,7804.00
2023-01-10T10:06:19.179Z,8620.00
2023-01-10T10:07:19.346Z,9264.00
2023-01-10T10:08:19.443Z,10824.00
2023-01-10T10:09:19.568Z,13408.00
2023-01-10T10:10:19.697Z,13088.00
2023-01-10T10:11:19.820Z,12628.00
2023-01-10T10:12:19.937Z,9488.00
2023-01-10T10:13:26.926Z,8328.00
2023-01-10T10:14:21.112Z,7620.00
2023-01-10T10:15:20.255Z,7412.00
2023-01-10T10:16:20.415Z,8456.00
2023-01-10T10:17:20.554Z,9272.00
2023-01-10T10:18:20.564Z,11072.00
2023-01-10T10:19:20.673Z,20576.00
2023-01-10T10:20:20.765Z,20896.00
2023-01-10T10:21:20.873Z,23840.00
2023-01-10T10:22:20.968Z,9260.00
2023-01-10T10:23:21.072Z,10776.00
2023-01-10T10:24:21.136Z,8548.00
2023-01-10T10:25:21.273Z,5592.00
2023-01-10T10:26:21.353Z,4024.00
2023-01-10T10:27:21.471Z,4292.00
2023-01-10T10:28:21.543Z,4096.00
2023-01-10T10:29:21.640Z,3448.00
2023-01-10T10:30:21.747Z,3724.00
2023-01-10T10:31:21.897Z,3932.00
2023-01-10T10:32:21.961Z,3952.00
2023-01-10T10:33:22.054Z,4384.00
2023-01-10T10:34:22.139Z,2956.00
2023-01-10T10:35:22.318Z,2560.00
2023-01-10T10:36:22.287Z,3644.00
2023-01-10T10:37:22.391Z,3908.00
2023-01-10T10:38:22.492Z,3844.00
2023-01-10T10:39:22.615Z,4148.00
2023-01-10T10:40:22.710Z,4748.00
2023-01-10T10:41:22.836Z,4520.00
2023-01-10T10:42:22.937Z,3736.00
2023-01-10T10:43:23.048Z,3348.00
2023-01-10T10:44:23.151Z,3864.00
2023-01-10T10:45:25.379Z,5568.00
2023-01-10T10:46:23.406Z,6712.00
2023-01-10T10:47:23.514Z,6248.00
2023-01-10T10:48:23.615Z,5184.00
2023-01-10T10:49:23.735Z,6068.00
2023-01-10T10:50:23.838Z,5524.00
2023-01-10T10:51:23.962Z,5424.00
2023-01-10T10:52:24.115Z,5844.00
2023-01-10T10:53:24.121Z,4840.00
2023-01-10T10:54:24.206Z,5504.00
2023-01-10T10:55:24.340Z,4992.00
2023-01-10T10:56:24.438Z,3896.00
2023-01-10T10:57:24.541Z,3132.00
2023-01-10T10:58:24.640Z,4620.00
2023-01-10T10:59:24.751Z,5688.00
2023-01-10T11:00:24.868Z,4880.00
2023-01-10T11:01:26.617Z,4904.00
2023-01-10T11:02:25.016Z,4072.00
2023-01-10T11:03:25.135Z,4604.00
2023-01-10T11:04:25.296Z,4088.00
2023-01-10T11:05:25.379Z,3372.00
2023-01-10T11:06:25.484Z,3012.00
2023-01-10T11:07:25.585Z,3352.00
2023-01-10T11:08:25.694Z,3680.00
2023-01-10T11:09:25.804Z,5108.00
2023-01-10T11:10:25.932Z,5980.00
2023-01-10T11:11:26.045Z,6752.00
2023-01-10T11:12:26.155Z,8600.00
2023-01-10T11:13:26.265Z,9276.00
2023-01-10T11:14:26.375Z,12164.00
2023-01-10T11:15:26.504Z,12260.00
2023-01-10T11:16:26.688Z,13600.00
2023-01-10T11:17:26.686Z,19104.00
2023-01-10T11:18:26.766Z,7240.00
2023-01-10T11:19:26.860Z,6036.00
2023-01-10T11:20:26.953Z,6696.00
2023-01-10T11:21:27.057Z,7376.00
2023-01-10T11:22:27.144Z,9048.00
2023-01-10T11:23:27.245Z,9596.00
2023-01-10T11:24:27.326Z,9824.00
2023-01-10T11:25:27.464Z,11000.00
2023-01-10T11:26:27.538Z,10672.00
2023-01-10T11:27:27.634Z,14592.00
2023-01-10T11:28:27.726Z,11812.00
2023-01-10T11:29:27.817Z,17856.00
2023-01-10T11:30:27.911Z,10052.00
2023-01-10T11:31:28.049Z,12916.00
2023-01-10T11:32:28.104Z,14304.00
2023-01-10T11:33:28.191Z,13952.00
2023-01-10T11:34:28.253Z,12872.00
2023-01-10T11:35:28.356Z,15232.00
2023-01-10T11:36:28.417Z,14752.00
2023-01-10T11:37:28.495Z,17152.00
2023-01-10T11:38:28.581Z,20160.00
2023-01-10T11:39:28.632Z,18912.00
2023-01-10T11:40:28.712Z,18272.00
2023-01-10T11:41:28.779Z,19552.00
2023-01-10T11:42:28.846Z,19808.00
2023-01-10T11:43:28.911Z,11112.00
2023-01-10T11:44:28.973Z,9576.00
2023-01-10T11:45:29.041Z,9708.00
2023-01-10T11:46:29.089Z,8748.00
2023-01-10T11:47:29.938Z,8364.00
2023-01-10T11:48:56.191Z,7932.00
2023-01-10T11:49:30.293Z,7548.00
2023-01-10T11:50:29.379Z,7512.00
2023-01-10T11:51:29.460Z,8484.00
2023-01-10T11:52:29.577Z,11924.00
2023-01-10T11:53:29.629Z,21408.00
2023-01-10T11:54:29.707Z,14336.00
2023-01-10T11:55:29.815Z,15648.00
2023-01-10T11:56:29.902Z,9868.00
2023-01-10T11:57:29.995Z,7772.00
2023-01-10T11:58:30.061Z,7012.00
2023-01-10T11:59:30.163Z,6188.00
2023-01-10T12:00:30.248Z,5640.00
2023-01-10T12:01:30.376Z,5340.00
2023-01-10T12:02:30.423Z,5264.00
2023-01-10T12:03:30.537Z,5128.00
2023-01-10T12:04:30.577Z,5420.00
2023-01-10T12:05:30.745Z,5832.00
2023-01-10T12:06:30.688Z,6264.00
2023-01-10T12:07:30.782Z,5592.00
2023-01-10T12:08:30.877Z,5264.00
2023-01-10T12:09:30.969Z,5160.00
2023-01-10T12:10:31.091Z,12204.00
2023-01-10T12:11:31.181Z,15936.00
2023-01-10T12:12:31.290Z,16160.00
2023-01-10T12:13:31.363Z,16352.00
2023-01-10T12:14:31.437Z,16608.00
2023-01-10T12:15:31.539Z,16960.00
2023-01-10T12:16:31.660Z,16896.00
2023-01-10T12:17:31.721Z,16864.00
2023-01-10T12:18:31.783Z,15712.00
2023-01-10T12:19:31.836Z,15232.00
2023-01-10T12:20:31.911Z,14656.00
2023-01-10T12:21:31.967Z,13856.00
2023-01-10T12:22:32.018Z,11260.00
2023-01-10T12:23:32.064Z,11932.00
2023-01-10T12:24:32.097Z,11908.00
2023-01-10T12:25:32.181Z,10424.00
2023-01-10T12:26:32.218Z,13056.00
2023-01-10T12:27:32.266Z,13280.00
2023-01-10T12:28:32.318Z,13344.00
2023-01-10T12:29:32.366Z,13408.00
2023-01-10T12:30:32.481Z,13376.00
2023-01-10T12:31:32.404Z,13536.00
2023-01-10T12:32:32.454Z,14432.00
2023-01-10T12:33:32.497Z,13280.00
2023-01-10T12:34:32.507Z,13216.00
2023-01-10T12:35:32.568Z,13184.00
2023-01-10T12:36:32.598Z,13536.00
2023-01-10T12:37:32.637Z,13984.00
2023-01-10T12:38:32.654Z,6596.00
2023-01-10T12:39:32.694Z,7732.00
2023-01-10T12:40:32.731Z,7984.00
2023-01-10T12:41:32.764Z,8504.00
2023-01-10T12:42:32.804Z,14560.00
2023-01-10T12:43:32.827Z,15424.00
2023-01-10T12:44:32.882Z,14880.00
2023-01-10T12:45:32.931Z,14592.00
2023-01-10T12:47:00.379Z,9752.00